Terminal Aerodrome Forecast
Issued by NWS Raleigh/Durham, NC

Home | Current Version | Previous Version | Text Only | Print | Product List | Glossary On
Versions: 1 2 3 4 5 6 7 8 9 10 11 12 13 14 15 16 17 18 19 20 21 22 23 24 25 26 27 28 29 30 31 32 33 34 35 36 37 38 39 40 41 42 43 44 45 46 47 48 49 50
000
FTUS42 KRAH 230540
TAFFAY
TAF
KFAY 230540Z 2306/2406 02010KT 4SM SHRA BKN005
      TEMPO 2306/2310 18020G35KT 1SM +TSRA OVC009CB
     FM231200 23007KT P6SM OVC015
     FM231500 23007KT P6SM BKN250
     FM231800 26005KT P6SM OVC050 PROB30 2318/2324 P6SM -SHRA OVC050
     FM240300 31005KT P6SM OVC025=

USA.gov is the U.S. government's official web portal to all federal, state and local government web resources and services.